Time;durP1;ratioP1;P1;durP2;ratioP2;P2;SDS_P1;SDS_P2;PMS_P1;PMS_P2;Temp;Humidity;BMP_temperature;BMP_pressure;BME280_temperature;BME280_humidity;BME280_pressure;Samples;Min_cycle;Max_cycle;Signal;HPM_P1;HPM_P2
2022/03/08 00:00:14;;;;;;;36.53;11.90;;;;;;;;;;5070756;28;20205;-69
2022/03/08 00:02:41;;;;;;;33.83;11.15;;;;;;;;;;5064033;28;20588;-68
2022/03/08 00:05:12;;;;;;;26.55;10.23;;;;;;;;;;5070552;28;20228;-69
2022/03/08 00:07:39;;;;;;;30.98;11.70;;;;;;;;;;5070998;28;20211;-68
2022/03/08 00:10:08;;;;;;;32.22;11.43;;;;;;;;;;5071021;28;20212;-69
2022/03/08 00:12:36;;;;;;;36.28;12.57;;;;;;;;;;5071528;28;20673;-68
2022/03/08 00:15:05;;;;;;;29.67;11.25;;;;;;;;;;5071569;28;20268;-68
2022/03/08 00:17:32;;;;;;;26.10;9.48;;;;;;;;;;5071744;28;20214;-69
2022/03/08 00:19:59;;;;;;;29.38;9.73;;;;;;;;;;5071754;28;20215;-69
2022/03/08 00:22:29;;;;;;;29.92;10.93;;;;;;;;;;5071546;28;20239;-69
2022/03/08 00:24:57;;;;;;;33.60;10.20;;;;;;;;;;5072071;28;20204;-68
2022/03/08 00:27:24;;;;;;;29.27;9.90;;;;;;;;;;5071558;28;20200;-68
2022/03/08 00:29:52;;;;;;;30.48;8.98;;;;;;;;;;5071567;28;20208;-68
2022/03/08 00:32:19;;;;;;;33.90;12.30;;;;;;;;;;5071808;28;20213;-68
2022/03/08 00:34:47;;;;;;;30.08;9.98;;;;;;;;;;5071248;28;20255;-69
2022/03/08 00:37:14;;;;;;;27.73;11.05;;;;;;;;;;5070058;28;20204;-68
2022/03/08 00:39:45;;;;;;;29.08;8.95;;;;;;;;;;5070316;28;20305;-68
2022/03/08 00:42:12;;;;;;;30.58;10.68;;;;;;;;;;5070125;28;20228;-69
2022/03/08 00:44:40;;;;;;;28.83;9.63;;;;;;;;;;5070146;28;20200;-70
2022/03/08 00:47:08;;;;;;;26.23;8.65;;;;;;;;;;5070121;28;20215;-68
2022/03/08 00:49:35;;;;;;;25.48;8.45;;;;;;;;;;5070173;28;20240;-68
2022/03/08 00:52:03;;;;;;;30.05;9.05;;;;;;;;;;5070459;28;20247;-68
2022/03/08 00:54:31;;;;;;;31.42;8.73;;;;;;;;;;5070117;28;20211;-69
2022/03/08 00:57:00;;;;;;;32.78;9.98;;;;;;;;;;5074070;28;20303;-72
2022/03/08 00:59:28;;;;;;;32.28;10.27;;;;;;;;;;5074073;28;20283;-69
2022/03/08 01:01:55;;;;;;;27.90;8.85;;;;;;;;;;5073780;28;20228;-68
2022/03/08 01:04:22;;;;;;;26.55;8.48;;;;;;;;;;5073647;28;20409;-69
2022/03/08 01:06:50;;;;;;;26.77;8.43;;;;;;;;;;5074228;28;20200;-68
2022/03/08 01:09:17;;;;;;;25.65;10.00;;;;;;;;;;5073822;28;20209;-69
2022/03/08 01:11:45;;;;;;;29.42;9.10;;;;;;;;;;5073929;28;20212;-68
2022/03/08 01:14:14;;;;;;;26.27;8.95;;;;;;;;;;5073709;28;20200;-69
2022/03/08 01:16:42;;;;;;;25.75;8.48;;;;;;;;;;5074073;28;20228;-69
2022/03/08 01:19:09;;;;;;;31.48;9.55;;;;;;;;;;5073382;28;20208;-69
2022/03/08 01:21:37;;;;;;;27.85;9.75;;;;;;;;;;5073779;28;20661;-69
2022/03/08 01:24:05;;;;;;;29.50;9.15;;;;;;;;;;5073572;28;20211;-68
2022/03/08 01:26:32;;;;;;;30.67;9.93;;;;;;;;;;5073510;28;20244;-68
2022/03/08 01:29:01;;;;;;;29.98;10.63;;;;;;;;;;5073354;28;20209;-69
2022/03/08 01:31:32;;;;;;;30.60;11.20;;;;;;;;;;5073319;28;20212;-69
2022/03/08 01:34:00;;;;;;;31.85;10.60;;;;;;;;;;5073594;28;20594;-68
2022/03/08 01:36:28;;;;;;;32.33;10.02;;;;;;;;;;5073361;28;20216;-68
2022/03/08 01:38:55;;;;;;;29.95;9.02;;;;;;;;;;5073582;28;20247;-69
2022/03/08 01:41:22;;;;;;;27.80;9.90;;;;;;;;;;5072959;28;20211;-69
2022/03/08 01:43:50;;;;;;;29.88;9.82;;;;;;;;;;5073178;28;20234;-68
2022/03/08 01:46:18;;;;;;;32.95;10.73;;;;;;;;;;5073112;28;20208;-69
2022/03/08 01:48:47;;;;;;;34.40;11.68;;;;;;;;;;5073052;28;20208;-69
2022/03/08 01:51:15;;;;;;;34.40;11.30;;;;;;;;;;5073046;28;20217;-68
2022/03/08 01:53:43;;;;;;;30.85;10.15;;;;;;;;;;5066328;28;20208;-69
2022/03/08 01:56:11;;;;;;;29.60;9.65;;;;;;;;;;5072905;28;20200;-69
2022/03/08 01:58:39;;;;;;;29.52;8.98;;;;;;;;;;5073405;28;20665;-69
2022/03/08 02:01:07;;;;;;;34.53;9.90;;;;;;;;;;5072923;28;20208;-68
2022/03/08 02:03:35;;;;;;;27.42;9.55;;;;;;;;;;5072857;28;20236;-68
2022/03/08 02:06:05;;;;;;;32.38;11.13;;;;;;;;;;5072602;28;20294;-68
2022/03/08 02:08:32;;;;;;;26.45;9.90;;;;;;;;;;5071972;28;20208;-68
2022/03/08 02:11:00;;;;;;;32.50;10.77;;;;;;;;;;5072334;28;20208;-69
2022/03/08 02:13:28;;;;;;;28.30;9.15;;;;;;;;;;5072933;28;20677;-69
2022/03/08 02:15:55;;;;;;;30.25;9.65;;;;;;;;;;5072787;28;20200;-68
2022/03/08 02:18:23;;;;;;;30.00;10.90;;;;;;;;;;5072531;28;20673;-69
2022/03/08 02:20:50;;;;;;;32.95;11.63;;;;;;;;;;5072574;28;20215;-68
2022/03/08 02:23:19;;;;;;;40.10;13.63;;;;;;;;;;5072248;28;20319;-69
2022/03/08 02:25:47;;;;;;;37.58;11.60;;;;;;;;;;5072707;28;20204;-69
2022/03/08 02:28:15;;;;;;;29.63;10.10;;;;;;;;;;5072577;28;20208;-68
2022/03/08 02:30:42;;;;;;;30.10;9.63;;;;;;;;;;5072304;28;20201;-69
2022/03/08 02:33:10;;;;;;;40.00;13.15;;;;;;;;;;5072156;28;20580;-69
2022/03/08 02:35:37;;;;;;;33.95;11.80;;;;;;;;;;5072325;28;20212;-69
2022/03/08 02:38:06;;;;;;;38.92;12.70;;;;;;;;;;5072042;28;20692;-68
2022/03/08 02:40:36;;;;;;;32.08;13.02;;;;;;;;;;5072202;28;20212;-68
2022/03/08 02:43:04;;;;;;;30.88;12.35;;;;;;;;;;5072099;28;20228;-69
2022/03/08 02:45:31;;;;;;;27.50;9.82;;;;;;;;;;5072138;28;20215;-68
2022/03/08 02:47:59;;;;;;;31.00;10.63;;;;;;;;;;5071922;28;20212;-69
2022/03/08 02:50:26;;;;;;;28.60;10.07;;;;;;;;;;5071944;28;20247;-68
2022/03/08 02:52:54;;;;;;;22.98;7.68;;;;;;;;;;5071879;28;20211;-68
2022/03/08 02:55:23;;;;;;;32.33;10.55;;;;;;;;;;5071945;28;20240;-68
2022/03/08 02:57:52;;;;;;;24.75;9.43;;;;;;;;;;5071866;28;20204;-69
2022/03/08 03:00:20;;;;;;;26.10;8.30;;;;;;;;;;5071805;28;20217;-69
2022/03/08 03:02:48;;;;;;;29.80;11.13;;;;;;;;;;5071472;28;20240;-69
2022/03/08 03:05:15;;;;;;;32.80;10.27;;;;;;;;;;5071487;28;20260;-68
2022/03/08 03:07:43;;;;;;;28.73;10.05;;;;;;;;;;5071533;28;20204;-69
2022/03/08 03:10:11;;;;;;;24.40;9.20;;;;;;;;;;5071467;28;20211;-69
2022/03/08 03:12:39;;;;;;;29.77;10.18;;;;;;;;;;5071566;28;20632;-68
2022/03/08 03:15:09;;;;;;;29.42;9.80;;;;;;;;;;5071209;28;20304;-68
2022/03/08 03:17:37;;;;;;;28.63;10.35;;;;;;;;;;5071335;28;20204;-68
2022/03/08 03:20:05;;;;;;;35.88;12.73;;;;;;;;;;5071305;28;20200;-68
2022/03/08 03:22:32;;;;;;;30.13;12.05;;;;;;;;;;5064317;28;20228;-69
2022/03/08 03:25:00;;;;;;;36.72;14.18;;;;;;;;;;5071189;28;20235;-69
2022/03/08 03:27:27;;;;;;;34.83;12.70;;;;;;;;;;5071286;28;20211;-68
2022/03/08 03:29:55;;;;;;;27.80;11.52;;;;;;;;;;5071096;28;20204;-68
2022/03/08 03:32:24;;;;;;;30.88;9.27;;;;;;;;;;5071262;28;20219;-68
2022/03/08 03:34:52;;;;;;;37.40;11.75;;;;;;;;;;5071239;28;20211;-68
2022/03/08 03:37:20;;;;;;;25.35;10.07;;;;;;;;;;5070977;28;20239;-69
2022/03/08 03:39:47;;;;;;;27.75;9.50;;;;;;;;;;5071115;28;20291;-69
2022/03/08 03:42:15;;;;;;;36.13;12.95;;;;;;;;;;5070905;28;20214;-68
2022/03/08 03:44:42;;;;;;;33.08;12.43;;;;;;;;;;5070729;28;20204;-69
2022/03/08 03:47:09;;;;;;;33.63;13.98;;;;;;;;;;5070593;28;20204;-69
2022/03/08 03:49:39;;;;;;;32.65;10.45;;;;;;;;;;5071002;28;20219;-69
2022/03/08 03:52:07;;;;;;;33.20;11.15;;;;;;;;;;5070891;28;20212;-68
2022/03/08 03:54:35;;;;;;;29.10;9.45;;;;;;;;;;5070802;28;20226;-68
2022/03/08 03:57:02;;;;;;;39.17;12.63;;;;;;;;;;5070464;28;20212;-69
2022/03/08 03:59:30;;;;;;;93.90;33.70;;;;;;;;;;5071074;28;20215;-69
2022/03/08 04:01:57;;;;;;;41.08;11.27;;;;;;;;;;5070514;28;20213;-69
2022/03/08 04:04:24;;;;;;;222.68;97.25;;;;;;;;;;5063638;28;20244;-68
2022/03/08 04:06:53;;;;;;;42.95;13.77;;;;;;;;;;5070558;28;20215;-69
2022/03/08 04:09:21;;;;;;;34.90;11.27;;;;;;;;;;5070266;28;20207;-68
2022/03/08 04:11:48;;;;;;;28.30;10.07;;;;;;;;;;5070486;28;20239;-68
2022/03/08 04:14:16;;;;;;;32.58;10.30;;;;;;;;;;5070783;28;20745;-68
2022/03/08 04:16:44;;;;;;;33.97;12.93;;;;;;;;;;5070679;28;20208;-68
2022/03/08 04:19:11;;;;;;;34.88;11.68;;;;;;;;;;5070237;28;20212;-68
2022/03/08 04:21:39;;;;;;;34.95;12.20;;;;;;;;;;5070471;28;20578;-69
2022/03/08 04:24:08;;;;;;;34.72;9.88;;;;;;;;;;5070374;28;20275;-68
2022/03/08 04:26:36;;;;;;;31.80;8.85;;;;;;;;;;5070786;28;20221;-69
2022/03/08 04:29:03;;;;;;;29.02;9.90;;;;;;;;;;5070286;28;20235;-68
2022/03/08 04:31:32;;;;;;;34.45;10.63;;;;;;;;;;5069813;28;20683;-69
2022/03/08 04:33:59;;;;;;;46.53;22.05;;;;;;;;;;5070230;28;20210;-69
2022/03/08 04:36:27;;;;;;;37.58;14.43;;;;;;;;;;5070279;28;20273;-68
2022/03/08 04:38:54;;;;;;;35.58;14.70;;;;;;;;;;5070191;28;20220;-68
2022/03/08 04:41:24;;;;;;;40.13;14.82;;;;;;;;;;5070232;28;20299;-69
2022/03/08 04:43:52;;;;;;;30.48;11.18;;;;;;;;;;5070279;28;20228;-69
2022/03/08 04:46:19;;;;;;;26.42;8.73;;;;;;;;;;5070276;28;20210;-68
2022/03/08 04:48:46;;;;;;;28.98;10.52;;;;;;;;;;5070261;28;20204;-68
2022/03/08 04:51:14;;;;;;;29.25;10.25;;;;;;;;;;5069841;28;20211;-69
2022/03/08 04:53:42;;;;;;;28.27;9.25;;;;;;;;;;5070094;28;20216;-68
2022/03/08 04:56:09;;;;;;;30.15;9.50;;;;;;;;;;5070337;28;20216;-69
2022/03/08 04:58:39;;;;;;;25.40;8.20;;;;;;;;;;5070073;28;20209;-69
2022/03/08 05:01:07;;;;;;;31.05;10.95;;;;;;;;;;5070031;28;20219;-69
2022/03/08 05:03:34;;;;;;;26.27;9.77;;;;;;;;;;5069875;28;20228;-69
2022/03/08 05:06:02;;;;;;;29.92;11.23;;;;;;;;;;5070139;28;20240;-70
2022/03/08 05:08:30;;;;;;;27.75;10.02;;;;;;;;;;5070311;28;20204;-68
2022/03/08 05:10:57;;;;;;;25.05;8.45;;;;;;;;;;5070106;28;20234;-68
2022/03/08 05:13:24;;;;;;;26.30;9.93;;;;;;;;;;5069990;28;20200;-68
2022/03/08 05:15:54;;;;;;;25.30;9.38;;;;;;;;;;5069900;28;20213;-68
2022/03/08 05:18:22;;;;;;;26.23;9.98;;;;;;;;;;5069905;28;20213;-68
2022/03/08 05:20:50;;;;;;;34.95;12.68;;;;;;;;;;5070107;28;20212;-68
2022/03/08 05:23:17;;;;;;;36.13;12.43;;;;;;;;;;5069653;28;20235;-68
2022/03/08 05:25:45;;;;;;;37.28;12.75;;;;;;;;;;5070241;28;20222;-68
2022/03/08 05:28:12;;;;;;;39.38;14.93;;;;;;;;;;5069861;28;20293;-68
2022/03/08 05:30:40;;;;;;;31.40;11.50;;;;;;;;;;5069857;28;20209;-68
2022/03/08 05:33:09;;;;;;;46.65;13.13;;;;;;;;;;5069644;28;20220;-69
2022/03/08 05:35:37;;;;;;;39.72;12.77;;;;;;;;;;5069997;28;21032;-68
2022/03/08 05:38:04;;;;;;;40.33;14.05;;;;;;;;;;5070157;28;20213;-68
2022/03/08 05:40:32;;;;;;;33.50;11.98;;;;;;;;;;5069616;28;20213;-69
2022/03/08 05:43:01;;;;;;;39.90;12.35;;;;;;;;;;5071454;28;20232;-68
2022/03/08 05:45:29;;;;;;;39.80;13.63;;;;;;;;;;5073185;28;20201;-68
2022/03/08 05:47:57;;;;;;;34.28;12.90;;;;;;;;;;5073112;28;20567;-68
2022/03/08 05:50:26;;;;;;;34.63;12.75;;;;;;;;;;5073205;28;20211;-68
2022/03/08 05:52:54;;;;;;;35.97;14.25;;;;;;;;;;5066062;28;20204;-68
2022/03/08 05:55:21;;;;;;;41.95;9.88;;;;;;;;;;5072858;28;20597;-69
2022/03/08 05:57:49;;;;;;;27.17;10.40;;;;;;;;;;5073058;28;20205;-68
2022/03/08 06:00:16;;;;;;;29.45;10.48;;;;;;;;;;5072922;28;20208;-67
2022/03/08 06:02:44;;;;;;;38.10;15.13;;;;;;;;;;5072733;28;20232;-68
2022/03/08 06:05:11;;;;;;;40.05;14.13;;;;;;;;;;5072382;28;20724;-68
2022/03/08 06:07:42;;;;;;;36.45;12.57;;;;;;;;;;5072963;28;20204;-68
2022/03/08 06:10:10;;;;;;;28.10;11.18;;;;;;;;;;5072811;28;20208;-68
2022/03/08 06:12:38;;;;;;;42.08;15.20;;;;;;;;;;5072655;28;20675;-68
2022/03/08 06:15:06;;;;;;;37.85;15.00;;;;;;;;;;5072612;28;20208;-68
2022/03/08 06:17:34;;;;;;;45.15;14.60;;;;;;;;;;5072840;28;20269;-67
2022/03/08 06:20:01;;;;;;;24.13;9.90;;;;;;;;;;5072647;28;20209;-68
2022/03/08 06:22:28;;;;;;;26.23;8.60;;;;;;;;;;5072526;28;20680;-67
2022/03/08 06:24:59;;;;;;;25.83;9.85;;;;;;;;;;5072483;28;20580;-67
2022/03/08 06:27:27;;;;;;;46.80;16.27;;;;;;;;;;5072522;28;20217;-68
2022/03/08 06:29:54;;;;;;;35.47;14.00;;;;;;;;;;5072349;28;20211;-68
2022/03/08 06:32:22;;;;;;;31.95;11.25;;;;;;;;;;5072510;28;20231;-67
2022/03/08 06:34:50;;;;;;;35.45;12.07;;;;;;;;;;5072392;28;20208;-67
2022/03/08 06:37:18;;;;;;;35.65;12.50;;;;;;;;;;5071988;28;20200;-68
2022/03/08 06:39:45;;;;;;;31.15;11.82;;;;;;;;;;5072216;28;20204;-68
2022/03/08 06:42:15;;;;;;;29.70;11.13;;;;;;;;;;5072154;28;20201;-67
2022/03/08 06:44:44;;;;;;;21.42;8.38;;;;;;;;;;5071889;28;20248;-68
2022/03/08 06:47:11;;;;;;;26.73;10.63;;;;;;;;;;5071793;28;20769;-68
2022/03/08 06:49:39;;;;;;;28.25;9.77;;;;;;;;;;5072109;28;20212;-68
2022/03/08 06:52:07;;;;;;;34.25;9.15;;;;;;;;;;5071802;28;20216;-67
2022/03/08 06:54:34;;;;;;;47.83;16.38;;;;;;;;;;5071754;28;20273;-68
2022/03/08 06:57:02;;;;;;;39.45;13.68;;;;;;;;;;5072049;28;20661;-68
2022/03/08 06:59:31;;;;;;;36.83;12.38;;;;;;;;;;5071992;28;20756;-68
2022/03/08 07:01:59;;;;;;;39.40;12.68;;;;;;;;;;5071720;28;20212;-67
2022/03/08 07:04:26;;;;;;;40.60;16.17;;;;;;;;;;5071485;28;20256;-67
2022/03/08 07:06:54;;;;;;;30.55;11.52;;;;;;;;;;5071618;28;20882;-67
2022/03/08 07:09:21;;;;;;;36.50;13.65;;;;;;;;;;5071436;28;20219;-68
2022/03/08 07:11:49;;;;;;;33.83;15.35;;;;;;;;;;5071466;28;20208;-67
2022/03/08 07:14:17;;;;;;;49.60;18.65;;;;;;;;;;5071522;28;20209;-67
2022/03/08 07:16:48;;;;;;;37.10;12.68;;;;;;;;;;5071483;28;20270;-68
2022/03/08 07:19:16;;;;;;;60.00;18.23;;;;;;;;;;5065049;28;20211;-68
2022/03/08 07:21:45;;;;;;;44.30;16.85;;;;;;;;;;5071422;28;20219;-68
2022/03/08 07:24:13;;;;;;;52.30;17.73;;;;;;;;;;5071276;28;20819;-68
2022/03/08 07:26:40;;;;;;;56.22;19.75;;;;;;;;;;5071361;28;20213;-67
2022/03/08 07:29:08;;;;;;;48.47;17.77;;;;;;;;;;5071015;28;20209;-68
2022/03/08 07:31:35;;;;;;;60.25;22.88;;;;;;;;;;5071186;28;20212;-68
2022/03/08 07:34:05;;;;;;;51.45;18.00;;;;;;;;;;5071282;28;20747;-68
2022/03/08 07:36:33;;;;;;;39.38;14.50;;;;;;;;;;5071261;28;20223;-68
2022/03/08 07:39:01;;;;;;;68.35;22.60;;;;;;;;;;5071057;28;20303;-68
2022/03/08 07:41:28;;;;;;;44.03;19.05;;;;;;;;;;5071006;28;20212;-68
2022/03/08 07:43:56;;;;;;;37.17;12.65;;;;;;;;;;5070910;28;20320;-67
2022/03/08 07:46:23;;;;;;;55.83;18.88;;;;;;;;;;5070801;28;20204;-68
2022/03/08 07:48:50;;;;;;;33.65;11.95;;;;;;;;;;5071291;28;20597;-67
2022/03/08 07:51:20;;;;;;;43.13;17.20;;;;;;;;;;5070775;28;20200;-67
2022/03/08 07:53:47;;;;;;;28.95;10.15;;;;;;;;;;5070790;28;20220;-68
2022/03/08 07:56:15;;;;;;;43.35;14.75;;;;;;;;;;5070892;28;20207;-67
2022/03/08 07:58:42;;;;;;;46.50;17.55;;;;;;;;;;5070699;28;20665;-68
2022/03/08 08:01:09;;;;;;;47.00;18.23;;;;;;;;;;5070858;28;20208;-67
2022/03/08 08:03:37;;;;;;;59.65;19.42;;;;;;;;;;5070909;28;20231;-68
2022/03/08 08:06:05;;;;;;;33.83;13.57;;;;;;;;;;5070072;28;20339;-67
2022/03/08 08:08:34;;;;;;;36.45;14.30;;;;;;;;;;5070847;28;20248;-67
2022/03/08 08:11:02;;;;;;;43.65;17.75;;;;;;;;;;5070403;28;20581;-68
2022/03/08 08:13:29;;;;;;;54.00;17.98;;;;;;;;;;5070642;28;20688;-68
2022/03/08 08:15:57;;;;;;;41.15;14.38;;;;;;;;;;5070578;28;20669;-68
2022/03/08 08:18:25;;;;;;;37.30;14.82;;;;;;;;;;5070592;28;20208;-68
2022/03/08 08:20:52;;;;;;;47.60;15.18;;;;;;;;;;5070540;28;20585;-68
2022/03/08 08:23:19;;;;;;;44.05;17.48;;;;;;;;;;5070329;28;20212;-67
2022/03/08 08:25:48;;;;;;;37.25;13.20;;;;;;;;;;5070296;28;20236;-68
2022/03/08 08:28:16;;;;;;;37.67;9.70;;;;;;;;;;5070331;28;20207;-68
2022/03/08 08:30:44;;;;;;;47.15;16.73;;;;;;;;;;5070688;28;20295;-68
2022/03/08 08:33:11;;;;;;;36.55;12.50;;;;;;;;;;5070394;28;20212;-68
2022/03/08 08:35:38;;;;;;;36.40;11.02;;;;;;;;;;5070424;28;20219;-67
2022/03/08 08:38:06;;;;;;;41.70;12.52;;;;;;;;;;5070344;28;20211;-68
2022/03/08 08:40:34;;;;;;;26.48;12.77;;;;;;;;;;5070243;28;20353;-68
2022/03/08 08:43:03;;;;;;;54.35;17.55;;;;;;;;;;5070300;28;20595;-68
2022/03/08 08:45:31;;;;;;;54.58;18.80;;;;;;;;;;5064135;28;20234;-68
2022/03/08 08:47:58;;;;;;;31.02;10.25;;;;;;;;;;5070397;28;20236;-68
2022/03/08 08:50:26;;;;;;;42.67;13.88;;;;;;;;;;5070351;28;20208;-68
2022/03/08 08:52:55;;;;;;;27.55;9.38;;;;;;;;;;5070094;28;20204;-68
2022/03/08 08:55:23;;;;;;;41.33;15.00;;;;;;;;;;5070214;28;20215;-68
2022/03/08 08:57:50;;;;;;;36.28;10.88;;;;;;;;;;5070097;28;20219;-67
2022/03/08 09:00:19;;;;;;;51.08;16.85;;;;;;;;;;5070324;28;20219;-68
2022/03/08 09:02:48;;;;;;;44.47;16.52;;;;;;;;;;5070275;28;20238;-68
2022/03/08 09:05:15;;;;;;;48.05;15.15;;;;;;;;;;5069473;28;20240;-68
2022/03/08 09:07:43;;;;;;;36.33;12.35;;;;;;;;;;5070067;28;20589;-68
2022/03/08 09:10:11;;;;;;;48.50;16.65;;;;;;;;;;5070313;28;20210;-69
2022/03/08 09:12:39;;;;;;;44.92;14.27;;;;;;;;;;5069949;28;20207;-68
2022/03/08 09:15:07;;;;;;;23.38;8.38;;;;;;;;;;5069780;28;20227;-67
2022/03/08 09:17:37;;;;;;;50.35;16.48;;;;;;;;;;5072951;28;20757;-68
2022/03/08 09:20:05;;;;;;;50.05;16.58;;;;;;;;;;5073574;28;20272;-67
2022/03/08 09:22:33;;;;;;;44.97;16.85;;;;;;;;;;5073605;28;20201;-68
2022/03/08 09:25:00;;;;;;;41.80;14.10;;;;;;;;;;5073459;28;20236;-68
2022/03/08 09:27:29;;;;;;;36.10;11.77;;;;;;;;;;5073517;28;20212;-68
2022/03/08 09:29:56;;;;;;;43.72;15.45;;;;;;;;;;5073593;28;20208;-67
2022/03/08 09:32:24;;;;;;;40.58;14.23;;;;;;;;;;5073515;28;20213;-68
2022/03/08 09:34:53;;;;;;;20.92;7.22;;;;;;;;;;5073358;28;20212;-68
2022/03/08 09:37:21;;;;;;;46.58;18.88;;;;;;;;;;5073351;28;20216;-68
2022/03/08 09:39:48;;;;;;;39.97;14.02;;;;;;;;;;5073339;28;20216;-68
2022/03/08 09:42:17;;;;;;;37.95;14.20;;;;;;;;;;5073219;28;20201;-68
2022/03/08 09:44:44;;;;;;;45.63;17.73;;;;;;;;;;5073225;28;20319;-68
2022/03/08 09:47:12;;;;;;;36.28;13.13;;;;;;;;;;5072796;28;20125;-68
2022/03/08 09:49:39;;;;;;;35.13;11.05;;;;;;;;;;5073492;28;20209;-68
2022/03/08 09:52:09;;;;;;;29.85;10.90;;;;;;;;;;5066559;28;20208;-68
2022/03/08 09:54:36;;;;;;;42.40;17.35;;;;;;;;;;5073112;28;20208;-68
2022/03/08 09:57:09;;;;;;;51.63;15.23;;;;;;;;;;5071989;28;20498;-68
2022/03/08 09:59:36;;;;;;;32.65;13.10;;;;;;;;;;5072996;28;20599;-68
2022/03/08 10:02:04;;;;;;;31.20;10.73;;;;;;;;;;5073197;28;20228;-68
2022/03/08 10:04:31;;;;;;;35.88;12.23;;;;;;;;;;5072496;28;20333;-68
2022/03/08 10:06:59;;;;;;;35.42;12.32;;;;;;;;;;5072927;28;20204;-70
2022/03/08 10:09:28;;;;;;;51.95;18.13;;;;;;;;;;5073126;28;20208;-68
2022/03/08 10:11:57;;;;;;;48.50;17.30;;;;;;;;;;5072785;28;20211;-68
2022/03/08 10:14:37;;;;;;;44.15;14.98;;;;;;;;;;5072683;28;20595;-68
2022/03/08 10:17:05;;;;;;;48.15;15.65;;;;;;;;;;5067195;28;20239;-68
2022/03/08 10:19:33;;;;;;;43.72;15.18;;;;;;;;;;5073033;28;20227;-68
2022/03/08 10:22:00;;;;;;;50.75;16.15;;;;;;;;;;5072714;28;20204;-69
2022/03/08 10:24:31;;;;;;;44.85;16.60;;;;;;;;;;5072442;28;20243;-68
2022/03/08 10:26:59;;;;;;;40.55;15.07;;;;;;;;;;5072495;28;20212;-68
2022/03/08 10:29:28;;;;;;;38.72;13.48;;;;;;;;;;5071481;28;20204;-68
2022/03/08 10:32:05;;;;;;;37.22;13.40;;;;;;;;;;5072160;28;20204;-67
2022/03/08 10:34:33;;;;;;;28.40;9.80;;;;;;;;;;5072305;28;20227;-69
2022/03/08 10:37:02;;;;;;;43.28;15.40;;;;;;;;;;5072065;28;20632;-68
2022/03/08 10:39:31;;;;;;;46.03;14.52;;;;;;;;;;5072518;28;20251;-68
2022/03/08 10:42:00;;;;;;;51.97;19.25;;;;;;;;;;5072487;28;20209;-68
2022/03/08 10:44:35;;;;;;;50.33;17.55;;;;;;;;;;5072196;28;20216;-68
2022/03/08 10:47:03;;;;;;;29.35;10.93;;;;;;;;;;5071715;28;20212;-68
2022/03/08 10:49:30;;;;;;;50.40;18.17;;;;;;;;;;5072040;28;20208;-68
2022/03/08 10:52:02;;;;;;;41.60;15.25;;;;;;;;;;5071975;28;20795;-68
2022/03/08 10:54:30;;;;;;;47.30;18.20;;;;;;;;;;5071994;28;20807;-68
2022/03/08 10:56:57;;;;;;;;;;;;;;;;;;5072311;28;20208;-68
2022/03/08 10:59:25;;;;;;;;;;;;;;;;;;5072357;28;19945;-68
2022/03/08 11:01:52;;;;;;;;;;;;;;;;;;5072260;28;20514;-68
2022/03/08 11:04:19;;;;;;;;;;;;;;;;;;5071696;28;19971;-68
2022/03/08 11:06:47;;;;;;;;;;;;;;;;;;5072148;28;19954;-68
2022/03/08 11:09:14;;;;;;;;;;;;;;;;;;5071826;28;19951;-68
2022/03/08 11:11:41;;;;;;;;;;;;;;;;;;5072187;28;19952;-69
2022/03/08 11:14:09;;;;;;;;;;;;;;;;;;5072027;28;19950;-68
2022/03/08 11:16:36;;;;;;;;;;;;;;;;;;5072054;28;19947;-68
2022/03/08 11:19:05;;;;;;;;;;;;;;;;;;5072005;28;19956;-68
2022/03/08 11:21:32;;;;;;;;;;;;;;;;;;5071954;28;19997;-68
2022/03/08 11:23:59;;;;;;;;;;;;;;;;;;5071804;28;19946;-68
2022/03/08 11:26:26;;;;;;;;;;;;;;;;;;5071693;28;20435;-68
2022/03/08 11:28:53;;;;;;;;;;;;;;;;;;5071656;28;19961;-68
2022/03/08 11:31:20;;;;;;;;;;;;;;;;;;5071371;28;19953;-69
2022/03/08 11:33:48;;;;;;;;;;;;;;;;;;5071681;28;19963;-68
2022/03/08 11:36:15;;;;;;;;;;;;;;;;;;5071537;28;19954;-68
2022/03/08 11:38:42;;;;;;;;;;;;;;;;;;5071569;28;19953;-68
2022/03/08 11:41:09;;;;;;;;;;;;;;;;;;5071236;28;19947;-68
2022/03/08 11:43:36;;;;;;;;;;;;;;;;;;5071514;28;19946;-68
2022/03/08 11:46:03;;;;;;;;;;;;;;;;;;5071197;28;19977;-68
2022/03/08 11:48:30;;;;;;;;;;;;;;;;;;5071578;28;19947;-68
2022/03/08 11:50:58;;;;;;;;;;;;;;;;;;5071405;28;19957;-69
2022/03/08 11:53:25;;;;;;;;;;;;;;;;;;5064596;28;19950;-68
2022/03/08 11:55:56;;;;;;;;;;;;;;;;;;5071405;28;20171;-68
2022/03/08 11:58:23;;;;;;;;;;;;;;;;;;5071165;28;19951;-69
2022/03/08 12:00:50;;;;;;;;;;;;;;;;;;5071512;28;19944;-68
2022/03/08 12:03:18;;;;;;;;;;;;;;;;;;5070901;28;19981;-68
2022/03/08 12:05:45;;;;;;;;;;;;;;;;;;5070896;28;19968;-68
2022/03/08 12:08:12;;;;;;;;;;;;;;;;;;5071167;28;19944;-68
2022/03/08 12:10:43;;;;;;;;;;;;;;;;;;5071056;28;20430;-68
2022/03/08 12:13:10;;;;;;;;;;;;;;;;;;5070886;28;19947;-68
2022/03/08 12:15:37;;;;;;;;;;;;;;;;;;5064166;28;19947;-68
2022/03/08 12:18:04;;;;;;;;;;;;;;;;;;5071110;28;19949;-68
2022/03/08 12:20:31;;;;;;;;;;;;;;;;;;5071049;28;20337;-68
2022/03/08 12:22:58;;;;;;;;;;;;;;;;;;5070791;28;19949;-69
2022/03/08 12:25:25;;;;;;;;;;;;;;;;;;5070803;28;19985;-68
2022/03/08 12:27:53;;;;;;;;;;;;;;;;;;5071029;28;19951;-68
2022/03/08 12:30:39;;;;;;;406.53;96.13;;;;;;;;;;5069484;28;20411;-68
2022/03/08 12:33:06;;;;;;;380.38;80.32;;;;;;;;;;5070150;28;20504;-68
2022/03/08 12:35:34;;;;;;;376.52;79.95;;;;;;;;;;5070264;28;20208;-68
2022/03/08 12:38:03;;;;;;;357.92;71.97;;;;;;;;;;5070157;28;20215;-69
2022/03/08 12:40:35;;;;;;;376.85;81.43;;;;;;;;;;5070300;28;20211;-69
2022/03/08 12:43:05;;;;;;;360.25;76.32;;;;;;;;;;5064121;28;20205;-68
2022/03/08 12:45:35;;;;;;;367.15;74.88;;;;;;;;;;5070405;28;20266;-68
2022/03/08 12:48:04;;;;;;;361.67;72.18;;;;;;;;;;5070211;28;20200;-68
2022/03/08 12:50:32;;;;;;;351.17;69.85;;;;;;;;;;5070066;28;20661;-68
2022/03/08 12:53:01;;;;;;;355.80;68.50;;;;;;;;;;5074139;28;20219;-69
2022/03/08 12:55:29;;;;;;;390.02;84.80;;;;;;;;;;5074208;28;20225;-69
2022/03/08 12:57:59;;;;;;;362.40;72.93;;;;;;;;;;5074319;28;20331;-68
2022/03/08 13:00:32;;;;;;;375.73;80.38;;;;;;;;;;5074151;28;20215;-68
2022/03/08 13:03:02;;;;;;;379.45;77.35;;;;;;;;;;5073700;28;20232;-69
2022/03/08 13:05:30;;;;;;;387.23;78.25;;;;;;;;;;5074095;28;20243;-68
2022/03/08 13:07:58;;;;;;;378.10;74.20;;;;;;;;;;5074074;28;20220;-68
2022/03/08 13:10:26;;;;;;;374.60;76.95;;;;;;;;;;5074198;28;20211;-68
2022/03/08 13:12:54;;;;;;;375.55;77.25;;;;;;;;;;5067317;28;20219;-68
2022/03/08 13:15:23;;;;;;;373.60;77.20;;;;;;;;;;5073519;28;20215;-69
2022/03/08 13:17:52;;;;;;;373.92;74.43;;;;;;;;;;5074120;28;20717;-68
2022/03/08 13:20:27;;;;;;;377.42;75.03;;;;;;;;;;5073876;28;20219;-69
2022/03/08 13:22:54;;;;;;;356.90;73.43;;;;;;;;;;5073784;28;20234;-68
2022/03/08 13:25:23;;;;;;;374.95;78.43;;;;;;;;;;5073348;28;20735;-69
2022/03/08 13:27:51;;;;;;;370.42;74.35;;;;;;;;;;5073561;28;20216;-68
2022/03/08 13:30:20;;;;;;;386.95;79.97;;;;;;;;;;5073328;28;20680;-68
2022/03/08 13:32:47;;;;;;;381.92;82.75;;;;;;;;;;5073418;28;20213;-69
2022/03/08 13:35:15;;;;;;;393.00;84.90;;;;;;;;;;5073312;28;20209;-68
2022/03/08 13:37:47;;;;;;;363.02;69.47;;;;;;;;;;5073457;28;20201;-68
2022/03/08 13:40:31;;;;;;;366.30;70.75;;;;;;;;;;5073591;28;20254;-68
2022/03/08 13:42:58;;;;;;;362.90;76.05;;;;;;;;;;5071832;28;20210;-69
2022/03/08 13:45:26;;;;;;;374.83;74.60;;;;;;;;;;5073598;28;20308;-68
2022/03/08 13:47:55;;;;;;;380.27;83.50;;;;;;;;;;5066417;28;20602;-68
2022/03/08 13:50:22;;;;;;;364.13;71.93;;;;;;;;;;5073366;28;20287;-69
2022/03/08 13:52:53;;;;;;;382.45;77.97;;;;;;;;;;5073253;28;20737;-68
2022/03/08 13:55:21;;;;;;;378.30;73.05;;;;;;;;;;5072897;28;20716;-69
2022/03/08 13:57:55;;;;;;;366.25;75.25;;;;;;;;;;5073329;28;20219;-69
2022/03/08 14:00:22;;;;;;;366.35;78.95;;;;;;;;;;5072994;28;20215;-68
2022/03/08 14:02:55;;;;;;;364.75;77.25;;;;;;;;;;5071785;28;20224;-69
2022/03/08 14:05:23;;;;;;;357.85;71.22;;;;;;;;;;5072854;28;20318;-68
2022/03/08 14:07:59;;;;;;;368.15;75.03;;;;;;;;;;5073017;28;20209;-69
2022/03/08 14:10:27;;;;;;;380.42;76.13;;;;;;;;;;5072940;28;20696;-68
2022/03/08 14:12:55;;;;;;;378.77;75.93;;;;;;;;;;5072950;28;20596;-68
2022/03/08 14:15:24;;;;;;;369.25;73.60;;;;;;;;;;5072599;28;20212;-69
2022/03/08 14:18:06;;;;;;;378.10;77.90;;;;;;;;;;5072699;28;20208;-69
2022/03/08 14:20:37;;;;;;;371.75;77.30;;;;;;;;;;5067604;28;20231;-69
2022/03/08 14:23:08;;;;;;;400.10;94.57;;;;;;;;;;5072309;28;20213;-69
2022/03/08 14:25:37;;;;;;;376.85;74.25;;;;;;;;;;5072825;28;20594;-69
2022/03/08 14:28:05;;;;;;;383.13;81.72;;;;;;;;;;5072577;28;20216;-68
2022/03/08 14:30:33;;;;;;;373.20;84.05;;;;;;;;;;5072194;28;20248;-69
2022/03/08 14:33:09;;;;;;;365.42;72.07;;;;;;;;;;5072156;28;20200;-69
2022/03/08 14:35:37;;;;;;;372.33;72.65;;;;;;;;;;5072340;28;20334;-68